createdAt,value
2022-12-14T00:01:27.972Z,9.83
2022-12-14T00:03:55.194Z,7.33
2022-12-14T00:06:22.829Z,6.27
2022-12-14T00:08:50.478Z,12.17
2022-12-14T00:11:18.877Z,7.63
2022-12-14T00:13:45.199Z,8.57
2022-12-14T00:16:17.525Z,11.03
2022-12-14T00:18:44.642Z,17.37
2022-12-14T00:21:12.655Z,6.83
2022-12-14T00:23:40.027Z,6.80
2022-12-14T00:26:07.884Z,8.03
2022-12-14T00:28:33.987Z,6.20
2022-12-14T00:31:00.999Z,10.47
2022-12-14T00:33:27.827Z,7.63
2022-12-14T00:35:53.935Z,6.20
2022-12-14T00:38:20.098Z,6.23
2022-12-14T00:40:46.247Z,7.40
2022-12-14T00:43:12.348Z,5.33
2022-12-14T00:45:39.788Z,6.97
2022-12-14T00:48:05.964Z,6.37
2022-12-14T00:50:32.648Z,7.87
2022-12-14T00:52:58.767Z,6.67
2022-12-14T00:55:24.880Z,4.87
2022-12-14T00:57:51.003Z,6.20
2022-12-14T01:00:17.452Z,5.63
2022-12-14T01:02:43.764Z,7.87
2022-12-14T01:05:10.295Z,7.97
2022-12-14T01:07:37.055Z,6.00
2022-12-14T01:10:03.545Z,5.83
2022-12-14T01:12:29.730Z,7.63
2022-12-14T01:14:55.841Z,7.87
2022-12-14T01:17:21.961Z,8.87
2022-12-14T01:19:49.073Z,7.97
2022-12-14T01:22:15.794Z,6.73
2022-12-14T01:24:43.949Z,7.73
2022-12-14T01:27:10.149Z,5.93
2022-12-14T01:29:36.554Z,4.87
2022-12-14T01:32:02.966Z,6.33
2022-12-14T01:34:29.143Z,7.73
2022-12-14T01:36:55.269Z,6.37
2022-12-14T01:39:21.396Z,6.97
2022-12-14T01:41:49.432Z,7.93
2022-12-14T01:44:52.803Z,6.77
2022-12-14T01:47:22.838Z,8.40
2022-12-14T01:49:51.623Z,6.23
2022-12-14T01:52:20.978Z,8.10
2022-12-14T01:54:50.000Z,7.37
2022-12-14T01:57:18.926Z,6.67
2022-12-14T01:59:46.079Z,8.40
2022-12-14T02:02:13.700Z,3.93
2022-12-14T02:04:43.512Z,6.50
2022-12-14T02:07:10.051Z,9.67
2022-12-14T02:09:39.129Z,6.43
2022-12-14T02:12:08.525Z,5.67
2022-12-14T02:14:35.429Z,7.40
2022-12-14T02:17:01.715Z,7.27
2022-12-14T02:19:27.843Z,7.37
2022-12-14T02:22:10.817Z,8.03
2022-12-14T02:24:58.714Z,6.80
2022-12-14T02:27:42.773Z,5.77
2022-12-14T02:30:12.178Z,5.70
2022-12-14T02:33:13.500Z,5.20
2022-12-14T02:35:45.875Z,9.43
2022-12-14T02:38:20.753Z,4.40
2022-12-14T02:40:54.082Z,7.10
2022-12-14T02:43:25.485Z,5.90
2022-12-14T02:45:56.570Z,4.40
2022-12-14T02:48:25.051Z,3.93
2022-12-14T02:50:54.514Z,8.57
2022-12-14T02:53:25.904Z,4.57
2022-12-14T02:55:57.166Z,6.13
2022-12-14T02:58:26.615Z,6.13
2022-12-14T03:00:54.228Z,6.73
2022-12-14T03:03:20.426Z,5.53
2022-12-14T03:05:55.303Z,10.70
2022-12-14T03:08:21.797Z,6.00
2022-12-14T03:10:50.280Z,4.17
2022-12-14T03:13:19.344Z,5.50
2022-12-14T03:15:48.283Z,4.83
2022-12-14T03:18:17.467Z,6.33
2022-12-14T03:20:44.542Z,6.03
2022-12-14T03:23:12.890Z,6.73
2022-12-14T03:25:45.479Z,5.27
2022-12-14T03:28:18.365Z,5.27
2022-12-14T03:31:03.811Z,6.70
2022-12-14T03:33:31.307Z,5.67
2022-12-14T03:36:02.247Z,6.07
2022-12-14T03:38:33.171Z,3.43
2022-12-14T03:41:05.495Z,9.20
2022-12-14T03:43:36.491Z,5.20
2022-12-14T03:46:07.331Z,4.67
2022-12-14T03:48:38.743Z,5.23
2022-12-14T03:51:09.435Z,5.13
2022-12-14T03:53:40.061Z,5.90
2022-12-14T03:56:09.035Z,6.93
2022-12-14T03:58:38.423Z,6.93
2022-12-14T04:01:07.872Z,7.53
2022-12-14T04:03:43.006Z,5.00
2022-12-14T04:06:16.351Z,5.97
2022-12-14T04:08:46.919Z,5.73
2022-12-14T04:11:33.747Z,7.60
2022-12-14T04:14:21.633Z,6.03
2022-12-14T04:17:09.066Z,5.97
2022-12-14T04:19:39.503Z,6.90
2022-12-14T04:22:07.251Z,6.00
2022-12-14T04:24:55.665Z,5.70
2022-12-14T04:27:29.453Z,6.87
2022-12-14T04:29:56.483Z,5.93
2022-12-14T04:32:26.897Z,6.70
2022-12-14T04:34:56.903Z,8.13
2022-12-14T04:37:24.527Z,5.23
2022-12-14T04:39:52.496Z,5.33
2022-12-14T04:42:20.297Z,4.77
2022-12-14T04:44:48.695Z,6.23
2022-12-14T04:47:16.850Z,7.23
2022-12-14T04:49:49.256Z,6.23
2022-12-14T04:52:19.793Z,10.40
2022-12-14T04:54:49.056Z,4.47
2022-12-14T04:57:19.465Z,7.67
2022-12-14T04:59:46.333Z,3.57
2022-12-14T05:02:18.759Z,4.13
2022-12-14T05:04:54.487Z,5.83
2022-12-14T05:07:28.750Z,6.33
2022-12-14T05:09:57.443Z,5.03
2022-12-14T05:12:27.092Z,4.83
2022-12-14T05:15:02.170Z,5.93
2022-12-14T05:17:28.548Z,4.37
2022-12-14T05:19:54.698Z,4.07
2022-12-14T05:22:20.997Z,5.73
2022-12-14T05:24:47.826Z,3.63
2022-12-14T05:27:14.123Z,5.40
2022-12-14T05:29:40.317Z,5.57
2022-12-14T05:32:06.518Z,7.03
2022-12-14T05:34:33.341Z,4.80
2022-12-14T05:36:59.579Z,6.43
2022-12-14T05:39:25.774Z,5.43
2022-12-14T05:41:52.857Z,5.77
2022-12-14T05:44:19.094Z,4.30
2022-12-14T05:46:45.279Z,5.20
2022-12-14T05:49:11.674Z,4.67
2022-12-14T05:51:37.962Z,6.33
2022-12-14T05:54:04.551Z,7.80
2022-12-14T05:56:30.925Z,6.03
2022-12-14T05:58:57.714Z,5.23
2022-12-14T06:01:23.915Z,5.83
2022-12-14T06:03:51.375Z,6.60
2022-12-14T06:06:17.566Z,5.10
2022-12-14T06:08:45.226Z,5.23
2022-12-14T06:11:12.699Z,4.50
2022-12-14T06:13:39.794Z,5.17
2022-12-14T06:16:08.060Z,4.10
2022-12-14T06:18:34.272Z,5.33
2022-12-14T06:21:00.515Z,5.57
2022-12-14T06:23:27.224Z,6.87
2022-12-14T06:25:53.982Z,6.40
2022-12-14T06:28:20.314Z,4.20
2022-12-14T06:30:47.386Z,4.30
2022-12-14T06:33:14.622Z,7.87
2022-12-14T06:35:42.338Z,5.63
2022-12-14T06:38:08.570Z,4.73
2022-12-14T06:40:34.724Z,7.27
2022-12-14T06:43:00.875Z,9.50
2022-12-14T06:45:27.818Z,8.43
2022-12-14T06:47:53.950Z,5.43
2022-12-14T06:50:20.750Z,6.47
2022-12-14T06:52:49.009Z,4.73
2022-12-14T06:55:15.463Z,7.30
2022-12-14T06:57:41.715Z,7.80
2022-12-14T07:00:11.367Z,8.40
2022-12-14T07:02:37.831Z,6.23
2022-12-14T07:05:04.723Z,6.60
2022-12-14T07:07:32.371Z,9.43
2022-12-14T07:09:58.612Z,7.93
2022-12-14T07:12:24.951Z,6.87
2022-12-14T07:14:51.058Z,6.53
2022-12-14T07:17:17.287Z,7.80
2022-12-14T07:19:43.550Z,7.20
2022-12-14T07:22:09.675Z,10.30
2022-12-14T07:24:36.671Z,8.13
2022-12-14T07:27:03.064Z,9.20
2022-12-14T07:29:34.346Z,9.90
2022-12-14T07:32:01.040Z,9.37
2022-12-14T07:34:27.354Z,10.03
2022-12-14T07:36:56.145Z,10.20
2022-12-14T07:39:22.349Z,9.30
2022-12-14T07:41:49.978Z,6.67
2022-12-14T07:44:16.686Z,11.27
2022-12-14T07:46:43.047Z,9.57
2022-12-14T07:49:09.338Z,12.20
2022-12-14T07:51:37.222Z,8.40
2022-12-14T07:54:05.343Z,15.53
2022-12-14T07:56:33.532Z,9.50
2022-12-14T07:59:01.835Z,13.50
2022-12-14T08:01:29.616Z,13.23
2022-12-14T08:03:57.317Z,12.00
2022-12-14T08:06:25.885Z,12.80
2022-12-14T08:08:52.810Z,9.93
2022-12-14T08:11:21.395Z,12.10
2022-12-14T08:13:47.759Z,9.80
2022-12-14T08:16:16.051Z,14.87
2022-12-14T08:18:42.680Z,11.07
2022-12-14T08:21:10.508Z,8.63
2022-12-14T08:23:36.920Z,13.27
2022-12-14T08:26:04.850Z,9.43
2022-12-14T08:28:32.248Z,7.80
2022-12-14T08:31:03.883Z,6.77
2022-12-14T08:33:30.963Z,10.90
2022-12-14T08:36:04.398Z,9.53
2022-12-14T08:38:30.533Z,8.63
2022-12-14T08:41:01.482Z,11.27
2022-12-14T08:43:27.931Z,9.00
2022-12-14T08:45:54.292Z,9.90
2022-12-14T08:48:20.484Z,13.60
2022-12-14T08:50:49.940Z,7.73
2022-12-14T08:53:16.366Z,11.53
2022-12-14T08:55:42.632Z,7.93
2022-12-14T08:58:09.654Z,8.17
2022-12-14T09:00:37.833Z,9.57
2022-12-14T09:03:04.129Z,8.13
2022-12-14T09:05:30.643Z,11.33
2022-12-14T09:07:57.559Z,9.37
2022-12-14T09:10:23.687Z,8.57
2022-12-14T09:12:50.331Z,8.00
2022-12-14T09:15:16.579Z,12.03
2022-12-14T09:17:42.725Z,11.50
2022-12-14T09:20:09.767Z,12.67
2022-12-14T09:22:35.871Z,11.73
2022-12-14T09:25:03.782Z,7.73
2022-12-14T09:27:29.982Z,10.43
2022-12-14T09:29:56.127Z,9.43
2022-12-14T09:32:22.856Z,7.40
2022-12-14T09:34:48.988Z,8.13
2022-12-14T09:37:15.349Z,9.20
2022-12-14T09:39:41.504Z,10.23
2022-12-14T09:42:16.326Z,12.23
2022-12-14T09:44:50.271Z,10.33
2022-12-14T09:47:18.954Z,10.43
2022-12-14T09:49:48.043Z,10.23
2022-12-14T09:52:17.730Z,9.60
2022-12-14T09:54:44.971Z,11.97
2022-12-14T09:57:27.330Z,12.80
2022-12-14T09:59:53.965Z,14.67
2022-12-14T10:02:34.164Z,10.47
2022-12-14T10:05:20.019Z,14.07
2022-12-14T10:07:53.944Z,11.90
2022-12-14T10:10:25.701Z,17.30
2022-12-14T10:12:59.442Z,12.93
2022-12-14T10:15:30.029Z,24.63
2022-12-14T10:18:49.472Z,9.00
2022-12-14T10:21:11.917Z,17.07
2022-12-14T10:23:39.813Z,10.47
2022-12-14T10:26:12.188Z,14.77
2022-12-14T10:28:45.532Z,12.57
2022-12-14T10:31:16.249Z,13.20
2022-12-14T10:33:44.680Z,12.93
2022-12-14T10:36:18.281Z,14.27
2022-12-14T10:38:49.175Z,13.63
2022-12-14T10:41:20.401Z,39.73
2022-12-14T10:43:52.516Z,13.53
2022-12-14T10:46:28.961Z,51.30
2022-12-14T10:48:58.618Z,41.90
2022-12-14T10:51:28.430Z,60.97
2022-12-14T10:53:57.625Z,32.57
2022-12-14T10:56:26.354Z,17.20
2022-12-14T11:00:03.048Z,21.93
2022-12-14T11:02:31.653Z,20.73
2022-12-14T11:04:59.172Z,17.83
2022-12-14T11:07:36.387Z,11.17
2022-12-14T11:10:14.809Z,13.80
2022-12-14T11:12:41.924Z,12.80
2022-12-14T11:15:23.466Z,15.57
2022-12-14T11:17:59.944Z,11.07
2022-12-14T11:20:26.184Z,12.83
2022-12-14T11:22:54.424Z,11.60
2022-12-14T11:25:29.092Z,10.77
2022-12-14T11:27:55.455Z,14.83
2022-12-14T11:30:21.653Z,14.50
2022-12-14T11:32:48.359Z,14.60
2022-12-14T11:35:16.862Z,13.97
2022-12-14T11:37:43.039Z,12.43
2022-12-14T11:40:19.323Z,12.60
2022-12-14T11:42:47.553Z,14.13
2022-12-14T11:45:29.803Z,13.93
2022-12-14T11:48:19.403Z,16.77
2022-12-14T11:50:47.291Z,18.27
2022-12-14T11:53:15.426Z,18.87
2022-12-14T11:55:44.785Z,12.70
2022-12-14T11:58:14.350Z,19.97
2022-12-14T12:00:47.148Z,15.57
2022-12-14T12:03:15.721Z,14.00
2022-12-14T12:05:43.427Z,16.23
2022-12-14T12:08:19.138Z,12.70
2022-12-14T12:10:50.028Z,16.43
2022-12-14T12:13:21.205Z,14.27
2022-12-14T12:15:50.017Z,11.87
2022-12-14T12:18:19.883Z,13.50
2022-12-14T12:20:50.852Z,13.00
2022-12-14T12:23:20.494Z,23.30
2022-12-14T12:25:48.331Z,12.80
2022-12-14T12:28:17.968Z,14.43
2022-12-14T12:30:47.565Z,13.87
2022-12-14T12:33:22.151Z,12.50
2022-12-14T12:35:50.055Z,13.90
2022-12-14T12:38:23.763Z,17.30
2022-12-14T12:40:55.980Z,18.90
2022-12-14T12:43:26.169Z,13.87
2022-12-14T12:45:55.605Z,18.23
2022-12-14T12:48:24.599Z,15.60
2022-12-14T12:50:54.363Z,15.20
2022-12-14T12:53:27.388Z,16.30
2022-12-14T12:55:56.699Z,13.43
2022-12-14T12:58:25.766Z,15.77
2022-12-14T13:00:54.882Z,18.13
2022-12-14T13:03:26.004Z,17.27
2022-12-14T13:05:53.705Z,14.73
2022-12-14T13:08:25.678Z,17.23
2022-12-14T13:13:42.709Z,15.30
2022-12-14T13:16:13.441Z,16.67
2022-12-14T13:18:59.598Z,17.47
2022-12-14T13:21:30.876Z,19.87
2022-12-14T13:23:57.664Z,16.53
2022-12-14T13:29:39.379Z,21.27
2022-12-14T13:32:09.864Z,17.50
2022-12-14T13:34:45.272Z,14.77
2022-12-14T13:37:26.613Z,15.67
2022-12-14T13:40:21.847Z,20.20
2022-12-14T13:42:53.510Z,15.87
2022-12-14T13:45:20.892Z,13.53
2022-12-14T13:47:50.628Z,16.03
2022-12-14T13:50:54.238Z,18.73
2022-12-14T13:53:14.883Z,17.23
2022-12-14T13:55:48.538Z,16.23
2022-12-14T13:58:18.444Z,15.93
2022-12-14T14:00:59.738Z,18.07
2022-12-14T14:03:51.432Z,19.03
2022-12-14T14:06:23.357Z,21.50
2022-12-14T14:08:51.267Z,17.10
2022-12-14T14:11:55.750Z,20.97
2022-12-14T14:14:34.631Z,24.97
2022-12-14T14:17:06.165Z,22.73
2022-12-14T14:19:38.503Z,18.43
2022-12-14T14:22:23.929Z,19.07
2022-12-14T14:24:54.808Z,16.70
2022-12-14T14:27:23.158Z,19.47
2022-12-14T14:29:50.319Z,17.73
2022-12-14T14:32:39.487Z,17.60
2022-12-14T14:35:08.346Z,17.77
2022-12-14T14:37:35.850Z,23.73
2022-12-14T14:40:18.704Z,17.73
2022-12-14T14:42:51.310Z,17.47
2022-12-14T14:45:30.894Z,18.00
2022-12-14T14:47:59.115Z,16.67
2022-12-14T14:50:29.807Z,21.83
2022-12-14T14:53:11.485Z,19.53
2022-12-14T14:56:19.045Z,17.40
2022-12-14T14:58:45.845Z,19.73
2022-12-14T15:01:23.852Z,21.83
2022-12-14T15:03:55.782Z,21.23
2022-12-14T15:06:24.195Z,18.67
2022-12-14T15:08:55.650Z,16.97
2022-12-14T15:11:23.887Z,24.10
2022-12-14T15:13:53.781Z,20.40
2022-12-14T15:16:21.964Z,22.37
2022-12-14T15:18:48.866Z,21.10
2022-12-14T15:21:16.087Z,22.03
2022-12-14T15:23:44.777Z,18.87
2022-12-14T15:26:19.403Z,17.40
2022-12-14T15:28:50.015Z,15.77
2022-12-14T15:31:18.141Z,16.57
2022-12-14T15:33:47.140Z,23.40
2022-12-14T15:36:15.893Z,16.73
2022-12-14T15:38:51.458Z,17.67
2022-12-14T15:41:18.017Z,21.93
2022-12-14T15:43:46.081Z,21.47
2022-12-14T15:46:15.704Z,22.00
2022-12-14T15:48:42.732Z,26.93
2022-12-14T15:51:12.429Z,21.93
2022-12-14T15:53:40.764Z,19.13
2022-12-14T15:56:16.649Z,21.43
2022-12-14T15:58:43.286Z,24.83
2022-12-14T16:01:12.567Z,19.73
2022-12-14T16:03:41.172Z,18.27
2022-12-14T16:06:09.196Z,20.60
2022-12-14T16:08:37.188Z,21.30
2022-12-14T16:11:05.648Z,25.07
2022-12-14T16:13:35.047Z,35.13
2022-12-14T16:16:05.625Z,25.40
2022-12-14T16:18:32.028Z,23.20
2022-12-14T16:21:00.592Z,27.27
2022-12-14T16:23:32.297Z,25.27
2022-12-14T16:26:00.493Z,27.17
2022-12-14T16:28:30.251Z,25.20
2022-12-14T16:30:59.672Z,20.40
2022-12-14T16:33:26.354Z,27.73
2022-12-14T16:36:01.288Z,21.63
2022-12-14T16:38:27.871Z,23.03
2022-12-14T16:40:56.886Z,31.93
2022-12-14T16:43:30.758Z,22.30
2022-12-14T16:46:18.132Z,25.07
2022-12-14T16:48:50.199Z,22.37
2022-12-14T16:51:58.243Z,21.63
2022-12-14T16:54:23.187Z,24.33
2022-12-14T16:56:54.892Z,24.70
2022-12-14T16:59:23.440Z,28.80
2022-12-14T17:01:50.535Z,30.50
2022-12-14T17:04:18.081Z,30.43
2022-12-14T17:06:46.452Z,28.10
2022-12-14T17:09:20.301Z,24.97
2022-12-14T17:11:47.167Z,27.43
2022-12-14T17:14:14.600Z,31.40
2022-12-14T17:16:41.575Z,27.83
2022-12-14T17:19:10.053Z,29.40
2022-12-14T17:21:36.195Z,27.40
2022-12-14T17:24:02.488Z,43.47
2022-12-14T17:26:30.929Z,34.60
2022-12-14T17:28:57.767Z,31.27
2022-12-14T17:31:26.127Z,33.13
2022-12-14T17:33:53.147Z,33.93
2022-12-14T17:36:19.286Z,33.63
2022-12-14T17:38:45.497Z,29.97
2022-12-14T17:41:16.447Z,28.53
2022-12-14T17:43:49.931Z,27.27
2022-12-14T17:46:19.952Z,30.17
2022-12-14T17:48:46.774Z,26.33
2022-12-14T17:51:18.172Z,24.77
2022-12-14T17:53:44.331Z,28.37
2022-12-14T17:56:10.561Z,22.70
2022-12-14T17:58:36.727Z,21.97
2022-12-14T18:01:03.774Z,20.30
2022-12-14T18:03:32.124Z,24.80
2022-12-14T18:05:59.758Z,25.03
2022-12-14T18:08:26.331Z,28.03
2022-12-14T18:10:54.943Z,28.07
2022-12-14T18:13:21.174Z,23.70
2022-12-14T18:15:50.399Z,21.50
2022-12-14T18:18:16.995Z,24.47
2022-12-14T18:20:44.508Z,27.10
2022-12-14T18:23:13.204Z,23.43
2022-12-14T18:25:43.424Z,22.00
2022-12-14T18:28:14.268Z,24.53
2022-12-14T18:30:49.043Z,25.27
2022-12-14T18:33:17.771Z,24.10
2022-12-14T18:35:44.751Z,22.40
2022-12-14T18:38:12.014Z,25.93
2022-12-14T18:40:38.637Z,22.50
2022-12-14T18:43:04.804Z,23.27
2022-12-14T18:45:33.255Z,24.63
2022-12-14T18:48:00.368Z,28.03
2022-12-14T18:50:28.000Z,25.90
2022-12-14T18:52:54.813Z,23.57
2022-12-14T18:55:23.620Z,29.10
2022-12-14T18:57:52.026Z,25.00
2022-12-14T19:00:21.268Z,25.50
2022-12-14T19:02:49.569Z,27.23
2022-12-14T19:05:17.150Z,24.97
2022-12-14T19:07:43.972Z,33.27
2022-12-14T19:10:15.197Z,22.33
2022-12-14T19:12:42.250Z,31.87
2022-12-14T19:15:11.728Z,29.37
2022-12-14T19:17:37.878Z,34.17
2022-12-14T19:20:04.569Z,43.20
2022-12-14T19:22:30.898Z,35.80
2022-12-14T19:24:57.041Z,35.70
2022-12-14T19:27:58.814Z,40.20
2022-12-14T19:30:12.944Z,36.33
2022-12-14T19:32:39.213Z,35.37
2022-12-14T19:35:05.803Z,28.77
2022-12-14T19:37:32.627Z,35.50
2022-12-14T19:40:01.869Z,33.57
2022-12-14T19:42:30.257Z,29.43
2022-12-14T19:44:56.760Z,30.67
2022-12-14T19:47:24.303Z,35.37
2022-12-14T19:49:50.604Z,32.13
2022-12-14T19:52:17.310Z,35.37
2022-12-14T19:54:44.314Z,36.57
2022-12-14T19:57:11.277Z,38.20
2022-12-14T19:59:37.745Z,27.40
2022-12-14T20:02:04.222Z,31.87
2022-12-14T20:04:31.508Z,27.40
2022-12-14T20:06:57.994Z,33.37
2022-12-14T20:09:24.308Z,33.20
2022-12-14T20:11:50.407Z,35.60
2022-12-14T20:14:16.947Z,33.10
2022-12-14T20:16:43.486Z,31.80
2022-12-14T20:19:11.739Z,27.67
2022-12-14T20:21:38.744Z,32.17
2022-12-14T20:24:05.668Z,34.30
2022-12-14T20:26:31.806Z,29.57
2022-12-14T20:29:00.376Z,32.20
2022-12-14T20:31:26.685Z,41.03
2022-12-14T20:33:53.367Z,29.83
2022-12-14T20:36:21.312Z,31.60
2022-12-14T20:38:53.430Z,31.17
2022-12-14T20:41:19.608Z,29.37
2022-12-14T20:43:45.762Z,25.53
2022-12-14T20:46:24.202Z,33.87
2022-12-14T20:48:50.407Z,35.63
2022-12-14T20:51:16.536Z,32.13
2022-12-14T20:53:43.103Z,35.90
2022-12-14T20:56:16.126Z,33.40
2022-12-14T20:58:45.543Z,42.70
2022-12-14T21:01:12.665Z,35.17
2022-12-14T21:03:39.208Z,41.40
2022-12-14T21:06:05.683Z,32.87
2022-12-14T21:08:51.850Z,33.43
2022-12-14T21:11:36.955Z,34.90
2022-12-14T21:14:03.316Z,38.90
2022-12-14T21:16:29.485Z,35.43
2022-12-14T21:18:55.632Z,36.17
2022-12-14T21:21:21.855Z,31.07
2022-12-14T21:23:48.046Z,34.73
2022-12-14T21:26:15.591Z,35.70
2022-12-14T21:28:42.343Z,31.97
2022-12-14T21:31:15.355Z,33.07
2022-12-14T21:33:46.393Z,33.93
2022-12-14T21:36:15.678Z,33.03
2022-12-14T21:38:41.814Z,35.13
2022-12-14T21:41:26.082Z,38.57
2022-12-14T21:43:52.995Z,42.10
2022-12-14T21:46:19.909Z,33.83
2022-12-14T21:48:46.166Z,40.00
2022-12-14T21:51:15.747Z,39.30
2022-12-14T21:53:57.719Z,36.43
2022-12-14T21:56:43.643Z,37.53
2022-12-14T21:59:10.643Z,37.30
2022-12-14T22:01:37.000Z,37.00
2022-12-14T22:04:03.828Z,34.90
2022-12-14T22:06:29.974Z,36.27
2022-12-14T22:08:56.139Z,35.90
2022-12-14T22:11:22.285Z,36.40
2022-12-14T22:13:48.426Z,38.30
2022-12-14T22:16:15.362Z,36.30
2022-12-14T22:18:41.475Z,36.10
2022-12-14T22:21:07.625Z,35.33
2022-12-14T22:23:35.158Z,39.90
2022-12-14T22:26:04.691Z,37.07
2022-12-14T22:28:30.968Z,37.40
2022-12-14T22:31:00.931Z,39.20
2022-12-14T22:33:28.074Z,34.53
2022-12-14T22:35:54.550Z,32.90
2022-12-14T22:38:20.684Z,36.37
2022-12-14T22:40:46.822Z,44.73
2022-12-14T22:43:13.454Z,36.07
2022-12-14T22:45:39.666Z,34.90
2022-12-14T22:48:06.113Z,39.63
2022-12-14T22:50:32.895Z,38.57
2022-12-14T22:52:59.228Z,36.40
2022-12-14T22:55:25.933Z,36.93
2022-12-14T22:57:52.308Z,35.27
2022-12-14T23:00:18.434Z,43.80
2022-12-14T23:02:48.089Z,36.03
2022-12-14T23:05:15.517Z,37.43
2022-12-14T23:07:42.335Z,43.47
2022-12-14T23:10:27.325Z,34.27
2022-12-14T23:13:11.684Z,37.90
2022-12-14T23:15:56.085Z,40.37
2022-12-14T23:18:40.393Z,34.47
2022-12-14T23:21:26.163Z,37.20
2022-12-14T23:24:11.303Z,40.43
2022-12-14T23:26:55.559Z,38.63
2022-12-14T23:29:39.877Z,36.33
2022-12-14T23:32:24.124Z,42.47
2022-12-14T23:35:08.481Z,39.70
2022-12-14T23:37:52.820Z,38.17
2022-12-14T23:40:38.117Z,37.43
2022-12-14T23:43:26.724Z,41.73
2022-12-14T23:46:11.438Z,35.90
2022-12-14T23:48:55.786Z,38.73
2022-12-14T23:51:40.120Z,41.97
2022-12-14T23:54:24.530Z,39.10
2022-12-14T23:57:09.688Z,32.27
2022-12-14T23:59:54.100Z,35.43
